createdAt,value
2022-12-01T00:03:38.113Z,86.03
2022-12-01T00:09:01.787Z,85.79
2022-12-01T00:14:04.359Z,84.61
2022-12-01T00:19:06.301Z,84.66
2022-12-01T00:24:11.188Z,86.33
2022-12-01T00:29:13.080Z,85.26
2022-12-01T00:34:22.600Z,84.67
2022-12-01T00:39:25.875Z,84.10
2022-12-01T00:44:27.875Z,84.55
2022-12-01T00:49:29.863Z,85.06
2022-12-01T00:54:33.346Z,85.27
2022-12-01T00:59:38.466Z,84.90
2022-12-01T01:04:40.389Z,85.24
2022-12-01T01:09:43.652Z,85.36
2022-12-01T01:14:45.576Z,85.45
2022-12-01T01:19:48.037Z,85.15
2022-12-01T01:24:51.514Z,84.95
2022-12-01T01:29:53.417Z,86.15
2022-12-01T01:34:55.427Z,85.73
2022-12-01T01:39:58.713Z,85.29
2022-12-01T01:45:00.712Z,85.11
2022-12-01T01:50:09.065Z,85.82
2022-12-01T01:55:14.011Z,85.15
2022-12-01T02:00:18.228Z,86.07
2022-12-01T02:05:23.325Z,84.74
2022-12-01T02:10:38.850Z,83.98
2022-12-01T02:15:47.912Z,84.39
2022-12-01T02:21:28.152Z,84.26
2022-12-01T02:26:44.673Z,84.01
2022-12-01T02:31:55.744Z,84.17
2022-12-01T02:37:05.233Z,84.52
2022-12-01T02:42:34.345Z,84.79
2022-12-01T02:47:41.189Z,84.97
2022-12-01T02:52:43.159Z,84.87
2022-12-01T02:57:45.051Z,84.05
2022-12-01T03:03:01.659Z,84.73
2022-12-01T03:08:19.594Z,84.58
2022-12-01T03:13:30.506Z,84.60
2022-12-01T03:18:38.446Z,85.37
2022-12-01T03:23:44.206Z,85.80
2022-12-01T03:28:50.071Z,86.28
2022-12-01T03:33:58.920Z,86.50
2022-12-01T03:39:06.674Z,86.30
2022-12-01T03:44:12.133Z,86.52
2022-12-01T03:49:18.132Z,85.71
2022-12-01T03:54:26.285Z,85.39
2022-12-01T03:59:29.385Z,85.77
2022-12-01T04:04:32.651Z,85.49
2022-12-01T04:09:34.626Z,86.13
2022-12-01T04:14:36.545Z,86.70
2022-12-01T04:19:39.794Z,86.14
2022-12-01T04:24:42.072Z,85.48
2022-12-01T04:29:44.173Z,85.87
2022-12-01T04:34:47.445Z,86.21
2022-12-01T04:39:49.765Z,86.26
2022-12-01T04:44:51.781Z,86.64
2022-12-01T04:49:55.086Z,85.84
2022-12-01T04:54:56.965Z,85.94
2022-12-01T04:59:58.837Z,86.13
2022-12-01T05:05:02.089Z,85.16
2022-12-01T05:10:05.059Z,85.46
2022-12-01T05:15:08.028Z,85.09
2022-12-01T05:20:36.550Z,85.57
2022-12-01T05:25:38.581Z,85.69
2022-12-01T05:30:40.862Z,85.95
2022-12-01T05:35:44.477Z,85.09
2022-12-01T05:40:50.288Z,83.82
2022-12-01T05:45:52.296Z,84.23
2022-12-01T05:50:55.671Z,83.80
2022-12-01T05:55:57.557Z,85.46
2022-12-01T06:01:00.036Z,85.01
2022-12-01T06:06:03.623Z,85.11
2022-12-01T06:11:06.056Z,84.29
2022-12-01T06:16:08.366Z,85.15
2022-12-01T06:21:11.642Z,85.32
2022-12-01T06:26:13.589Z,85.44
2022-12-01T06:31:15.515Z,84.92
2022-12-01T06:36:19.161Z,84.58
2022-12-01T06:41:21.084Z,84.48
2022-12-01T06:46:23.138Z,84.35
2022-12-01T06:51:27.016Z,83.80
2022-12-01T06:56:28.958Z,84.22
2022-12-01T07:01:31.107Z,84.15
2022-12-01T07:06:34.405Z,83.61
2022-12-01T07:11:36.942Z,83.55
2022-12-01T07:16:38.956Z,83.89
2022-12-01T07:21:42.284Z,83.08
2022-12-01T07:26:44.256Z,83.42
2022-12-01T07:31:46.503Z,82.51
2022-12-01T07:36:49.792Z,82.74
2022-12-01T07:41:51.699Z,82.36
2022-12-01T07:46:54.264Z,82.02
2022-12-01T07:51:57.574Z,82.33
2022-12-01T07:56:59.516Z,81.62
2022-12-01T08:02:01.527Z,80.82
2022-12-01T08:07:04.869Z,80.18
2022-12-01T08:12:07.657Z,80.13
2022-12-01T08:17:09.601Z,80.55
2022-12-01T08:22:12.850Z,79.85
2022-12-01T08:27:14.812Z,78.42
2022-12-01T08:32:17.223Z,78.98
2022-12-01T08:37:20.493Z,78.63
2022-12-01T08:42:22.458Z,78.11
2022-12-01T08:47:24.434Z,79.01
2022-12-01T08:52:31.430Z,78.63
2022-12-01T08:57:33.688Z,80.00
2022-12-01T09:02:35.788Z,79.45
2022-12-01T09:07:39.358Z,78.17
2022-12-01T09:12:41.437Z,78.14
2022-12-01T09:17:43.386Z,78.71
2022-12-01T09:22:46.671Z,77.66
2022-12-01T09:27:48.587Z,77.74
2022-12-01T09:32:50.522Z,77.74
2022-12-01T09:37:53.793Z,76.82
2022-12-01T09:42:56.277Z,76.23
2022-12-01T09:48:01.015Z,76.95
2022-12-01T09:53:08.652Z,76.92
2022-12-01T09:58:18.451Z,78.68
2022-12-01T10:03:30.818Z,76.34
2022-12-01T10:08:38.922Z,74.96
2022-12-01T10:13:43.656Z,74.79
2022-12-01T10:18:55.773Z,75.81
2022-12-01T10:24:14.108Z,74.32
2022-12-01T10:29:22.341Z,75.64
2022-12-01T10:34:26.950Z,73.39
2022-12-01T10:39:34.708Z,73.09
2022-12-01T10:44:36.970Z,74.42
2022-12-01T10:49:40.745Z,73.86
2022-12-01T10:54:44.046Z,74.17
2022-12-01T10:59:56.266Z,73.69
2022-12-01T11:05:00.379Z,73.85
2022-12-01T11:10:20.898Z,74.15
2022-12-01T11:15:26.652Z,74.90
2022-12-01T11:20:32.441Z,73.72
2022-12-01T11:25:36.674Z,74.09
2022-12-01T11:30:38.633Z,73.56
2022-12-01T11:35:47.748Z,74.78
2022-12-01T11:40:53.665Z,73.94
2022-12-01T11:45:58.703Z,73.43
2022-12-01T11:51:07.286Z,75.02
2022-12-01T11:56:23.714Z,74.08
2022-12-01T12:01:32.850Z,75.00
2022-12-01T12:06:44.605Z,75.42
2022-12-01T12:11:53.405Z,77.14
2022-12-01T12:17:12.700Z,75.00
2022-12-01T12:22:26.014Z,76.49
2022-12-01T12:27:43.539Z,75.54
2022-12-01T12:33:04.391Z,75.72
2022-12-01T12:38:22.382Z,75.36
2022-12-01T12:43:35.659Z,76.05
2022-12-01T12:49:19.381Z,75.07
2022-12-01T12:54:27.659Z,75.05
2022-12-01T12:59:38.557Z,75.48
2022-12-01T13:04:49.042Z,75.82
2022-12-01T13:09:55.532Z,75.92
2022-12-01T13:15:06.306Z,75.36
2022-12-01T13:20:15.205Z,76.06
2022-12-01T13:25:23.882Z,76.26
2022-12-01T13:30:27.491Z,76.25
2022-12-01T13:35:32.199Z,75.79
2022-12-01T13:40:34.241Z,76.70
2022-12-01T13:45:39.945Z,76.56
2022-12-01T13:51:03.594Z,75.79
2022-12-01T13:56:24.982Z,76.50
2022-12-01T14:01:45.586Z,75.99
2022-12-01T14:06:49.780Z,76.79
2022-12-01T14:11:57.024Z,77.67
2022-12-01T14:17:05.350Z,77.50
2022-12-01T14:22:27.965Z,78.02
2022-12-01T14:27:35.171Z,77.39
2022-12-01T14:32:38.452Z,79.38
2022-12-01T14:37:49.620Z,79.97
2022-12-01T14:43:14.220Z,80.31
2022-12-01T14:48:24.827Z,80.50
2022-12-01T14:53:30.649Z,80.63
2022-12-01T14:58:32.644Z,82.25
2022-12-01T15:03:41.515Z,81.78
2022-12-01T15:08:58.347Z,81.42
2022-12-01T15:14:22.802Z,82.10
2022-12-01T15:19:31.633Z,82.44
2022-12-01T15:24:34.106Z,82.84
2022-12-01T15:29:43.945Z,83.30
2022-12-01T15:34:50.659Z,83.25
2022-12-01T15:40:00.852Z,83.77
2022-12-01T15:45:18.481Z,83.29
2022-12-01T15:50:31.102Z,82.85
2022-12-01T15:55:34.801Z,82.96
2022-12-01T16:00:37.302Z,82.91
2022-12-01T16:05:44.376Z,81.70
2022-12-01T16:11:06.315Z,81.95
2022-12-01T16:16:27.274Z,82.31
2022-12-01T16:21:33.650Z,84.03
2022-12-01T16:26:35.730Z,84.56
2022-12-01T16:31:52.682Z,83.00
2022-12-01T16:37:01.289Z,83.29
2022-12-01T16:42:03.706Z,82.73
2022-12-01T16:47:13.086Z,82.24
2022-12-01T16:52:46.337Z,82.61
2022-12-01T16:57:39.025Z,82.42
2022-12-01T17:02:41.060Z,82.38
2022-12-01T17:07:44.535Z,82.94
2022-12-01T17:12:47.455Z,83.72
2022-12-01T17:17:49.926Z,82.97
2022-12-01T17:22:53.220Z,82.87
2022-12-01T17:27:55.260Z,83.34
2022-12-01T17:32:57.912Z,83.25
2022-12-01T17:38:01.223Z,83.47
2022-12-01T17:43:03.291Z,83.58
2022-12-01T17:48:05.559Z,83.08
2022-12-01T17:53:08.926Z,83.49
2022-12-01T17:58:10.896Z,83.65
2022-12-01T18:03:12.901Z,82.72
2022-12-01T18:08:16.347Z,83.27
2022-12-01T18:13:20.306Z,82.00
2022-12-01T18:18:23.503Z,82.52
2022-12-01T18:23:27.097Z,82.17
2022-12-01T18:28:29.035Z,82.97
2022-12-01T18:33:31.508Z,82.03
2022-12-01T18:38:34.776Z,81.33
2022-12-01T18:43:37.271Z,81.23
2022-12-01T18:48:44.563Z,80.51
2022-12-01T18:53:47.911Z,81.13
2022-12-01T18:58:54.375Z,80.89
2022-12-01T19:03:58.665Z,81.02
2022-12-01T19:09:04.459Z,81.09
2022-12-01T19:14:07.170Z,81.11
2022-12-01T19:19:09.820Z,80.29
2022-12-01T19:24:13.194Z,80.28
2022-12-01T19:29:15.230Z,79.63
2022-12-01T19:34:17.365Z,80.38
2022-12-01T19:39:20.852Z,79.91
2022-12-01T19:44:23.311Z,78.56
2022-12-01T19:49:25.218Z,79.15
2022-12-01T19:54:28.800Z,79.10
2022-12-01T19:59:30.729Z,78.38
2022-12-01T20:04:32.937Z,78.77
2022-12-01T20:09:36.558Z,77.53
2022-12-01T20:14:38.486Z,79.12
2022-12-01T20:19:41.095Z,78.91
2022-12-01T20:24:44.500Z,79.70
2022-12-01T20:29:46.493Z,80.09
2022-12-01T20:34:48.793Z,78.26
2022-12-01T20:39:52.544Z,78.90
2022-12-01T20:44:54.482Z,79.06
2022-12-01T20:49:58.449Z,79.44
2022-12-01T20:55:01.840Z,79.26
2022-12-01T21:00:04.549Z,79.18
2022-12-01T21:05:06.701Z,77.67
2022-12-01T21:10:11.852Z,78.12
2022-12-01T21:15:24.699Z,78.40
2022-12-01T21:20:30.205Z,77.64
2022-12-01T21:25:33.558Z,77.59
2022-12-01T21:30:35.691Z,78.32
2022-12-01T21:35:37.648Z,78.20
2022-12-01T21:40:43.882Z,78.77
2022-12-01T21:45:49.816Z,77.46
2022-12-01T21:51:00.563Z,77.89
2022-12-01T21:56:04.346Z,77.03
2022-12-01T22:01:15.856Z,77.81
2022-12-01T22:06:31.076Z,78.77
2022-12-01T22:11:34.527Z,78.49
2022-12-01T22:16:40.608Z,78.03
2022-12-01T22:21:45.201Z,78.55
2022-12-01T22:26:50.721Z,78.12
2022-12-01T22:32:04.803Z,77.91
2022-12-01T22:37:14.515Z,78.66
2022-12-01T22:42:30.295Z,79.27
2022-12-01T22:47:33.887Z,79.24
2022-12-01T22:52:35.815Z,79.59
2022-12-01T22:57:39.112Z,78.64
2022-12-01T23:02:41.307Z,78.59
2022-12-01T23:07:43.710Z,79.31
2022-12-01T23:12:48.765Z,79.13
2022-12-01T23:17:51.454Z,79.30
2022-12-01T23:22:54.942Z,79.40
2022-12-01T23:28:02.729Z,78.43
2022-12-01T23:33:19.931Z,78.05
2022-12-01T23:38:23.840Z,78.34
2022-12-01T23:43:29.593Z,77.86
2022-12-01T23:48:35.969Z,78.93
2022-12-01T23:53:40.009Z,79.26
2022-12-01T23:58:44.173Z,79.66
